Time;durP1;ratioP1;P1;durP2;ratioP2;P2;SDS_P1;SDS_P2;PMS_P1;PMS_P2;Temp;Humidity;BMP_temperature;BMP_pressure;BME280_temperature;BME280_humidity;BME280_pressure;Samples;Min_cycle;Max_cycle;Signal;HPM_P1;HPM_P2
2021/07/26 00:00:20;;;;;;;;;;;19.40;81.00;;;;;;5035686;28;20029;-78
2021/07/26 00:02:46;;;;;;;0.80;0.80;;;19.30;80.80;;;;;;5053054;28;19924;-78
2021/07/26 00:05:12;;;;;;;0.73;0.73;;;19.30;81.10;;;;;;5035153;28;20044;-78
2021/07/26 00:07:37;;;;;;;1.20;1.10;;;19.30;81.10;;;;;;5052567;28;20044;-78
2021/07/26 00:10:04;;;;;;;1.10;0.95;;;19.20;81.10;;;;;;5052924;28;20027;-78
2021/07/26 00:12:30;;;;;;;0.75;0.75;;;19.20;81.20;;;;;;5052870;28;20025;-78
2021/07/26 00:14:56;;;;;;;1.08;1.00;;;19.10;81.30;;;;;;5053001;28;20139;-78
2021/07/26 00:17:21;;;;;;;0.60;0.60;;;19.20;81.40;;;;;;5052931;28;20572;-78
2021/07/26 00:19:47;;;;;;;1.15;1.05;;;19.10;81.40;;;;;;5054022;28;20056;-78
2021/07/26 00:22:12;;;;;;;1.77;1.23;;;19.10;81.40;;;;;;5056524;28;20092;-78
2021/07/26 00:24:38;;;;;;;1.35;0.90;;;19.20;81.50;;;;;;5038966;28;20339;-78
2021/07/26 00:27:04;;;;;;;1.10;1.00;;;19.10;81.50;;;;;;5056966;28;20028;-78
2021/07/26 00:29:29;;;;;;;1.02;0.90;;;19.10;81.60;;;;;;5056886;28;20029;-78
2021/07/26 00:31:55;;;;;;;0.60;0.60;;;19.00;81.60;;;;;;5057112;28;20021;-78
2021/07/26 00:34:24;;;;;;;1.20;1.17;;;19.00;81.70;;;;;;5056410;28;20393;-78
2021/07/26 00:37:01;;;;;;;1.02;0.98;;;19.00;81.80;;;;;;5056707;28;20055;-78
2021/07/26 00:39:33;;;;;;;0.85;0.85;;;19.00;81.80;;;;;;5056815;28;20108;-78
2021/07/26 00:41:59;;;;;;;1.05;0.90;;;18.90;81.80;;;;;;5056978;28;20093;-78
2021/07/26 00:44:31;;;;;;;1.02;0.93;;;18.90;81.80;;;;;;5056378;28;20084;-77
2021/07/26 00:46:57;;;;;;;1.20;1.10;;;18.90;82.50;;;;;;5056676;28;20127;-77
2021/07/26 00:49:24;;;;;;;0.88;0.88;;;18.90;81.90;;;;;;5038257;28;20025;-78
2021/07/26 00:51:56;;;;;;;1.30;1.20;;;18.90;81.90;;;;;;5038457;28;20083;-78
2021/07/26 00:54:27;;;;;;;1.42;1.05;;;18.90;82.00;;;;;;5038714;28;20381;-78
2021/07/26 00:56:53;;;;;;;1.00;0.90;;;18.80;82.00;;;;;;5056273;28;20020;-78
2021/07/26 00:59:19;;;;;;;1.25;0.77;;;18.80;82.10;;;;;;5056415;28;20024;-78
2021/07/26 01:01:45;;;;;;;0.88;0.88;;;18.80;82.10;;;;;;5038495;28;20422;-78
2021/07/26 01:04:11;;;;;;;1.65;0.80;;;18.80;82.10;;;;;;5055918;28;20032;-78
2021/07/26 01:06:38;;;;;;;0.93;0.93;;;18.80;82.20;;;;;;5038411;28;20025;-77
2021/07/26 01:09:04;;;;;;;0.75;0.70;;;18.80;82.10;;;;;;5056169;28;20032;-77
2021/07/26 01:11:30;;;;;;;0.82;0.82;;;18.70;82.10;;;;;;5056197;28;20039;-77
2021/07/26 01:13:56;;;;;;;0.73;0.73;;;18.70;82.20;;;;;;5056070;28;20033;-78
2021/07/26 01:16:23;;;;;;;1.10;1.00;;;18.70;82.30;;;;;;5055902;28;20088;-77
2021/07/26 01:18:49;;;;;;;1.08;0.70;;;18.70;82.90;;;;;;5055719;28;20059;-78
2021/07/26 01:21:16;;;;;;;1.00;0.90;;;18.60;82.30;;;;;;5055979;28;20021;-78
2021/07/26 01:23:45;;;;;;;0.63;0.63;;;18.70;82.30;;;;;;5055726;28;20421;-78
2021/07/26 01:26:13;;;;;;;0.70;0.70;;;18.60;82.30;;;;;;5055870;28;20453;-78
2021/07/26 01:28:51;;;;;;;1.05;1.02;;;18.70;82.40;;;;;;5055862;28;20028;-78
2021/07/26 01:31:17;;;;;;;0.95;0.90;;;18.60;82.30;;;;;;5055904;28;20029;-78
2021/07/26 01:33:45;;;;;;;0.73;0.70;;;18.60;82.30;;;;;;5037179;28;20056;-78
2021/07/26 01:36:11;;;;;;;0.77;0.77;;;18.60;82.30;;;;;;5037901;28;20380;-78
2021/07/26 01:38:37;;;;;;;0.75;0.73;;;18.60;82.40;;;;;;5055590;28;20385;-78
2021/07/26 01:41:07;;;;;;;0.52;0.52;;;18.50;82.40;;;;;;5055527;28;20025;-79
2021/07/26 01:43:34;;;;;;;0.90;0.90;;;18.50;82.50;;;;;;5055459;28;20025;-78
2021/07/26 01:46:27;;;;;;;0.90;0.90;;;18.50;82.60;;;;;;5055629;28;20036;-78
2021/07/26 01:49:00;;;;;;;1.90;1.33;;;18.50;82.70;;;;;;5054983;28;20029;-78
2021/07/26 01:51:39;;;;;;;1.02;0.98;;;18.50;82.80;;;;;;5055257;28;20049;-78
2021/07/26 01:54:05;;;;;;;;;;;18.50;82.80;;;;;;5055565;28;20116;-78
2021/07/26 01:56:32;;;;;;;1.00;0.90;;;18.40;82.50;;;;;;5055228;28;19999;-78
2021/07/26 01:58:58;;;;;;;1.00;0.90;;;18.40;82.90;;;;;;5055082;28;20021;-78
2021/07/26 02:01:23;;;;;;;1.08;0.93;;;18.40;82.80;;;;;;5037018;28;20036;-78
2021/07/26 02:03:49;;;;;;;0.90;0.90;;;18.40;82.80;;;;;;5055056;28;20032;-78
2021/07/26 02:06:14;;;;;;;0.60;0.60;;;18.40;82.80;;;;;;5055105;28;20047;-78
2021/07/26 02:08:40;;;;;;;0.60;0.60;;;18.40;82.80;;;;;;5037062;28;20059;-78
2021/07/26 02:11:05;;;;;;;1.00;0.90;;;18.40;82.80;;;;;;5055029;28;20502;-78
2021/07/26 02:13:36;;;;;;;0.90;0.90;;;18.40;82.90;;;;;;5037295;28;20070;-78
2021/07/26 02:16:02;;;;;;;0.70;0.70;;;18.40;82.90;;;;;;5054448;28;20359;-78
2021/07/26 02:18:28;;;;;;;0.80;0.80;;;18.40;82.90;;;;;;5054943;28;20032;-79
2021/07/26 02:20:53;;;;;;;1.02;0.90;;;18.40;82.90;;;;;;5054833;28;20454;-78
2021/07/26 02:23:19;;;;;;;0.50;0.50;;;18.40;82.90;;;;;;5054856;28;20378;-78
2021/07/26 02:25:44;;;;;;;0.73;0.73;;;18.40;82.90;;;;;;5054611;28;20466;-79
2021/07/26 02:28:10;;;;;;;1.63;0.98;;;18.40;82.90;;;;;;5036806;28;20021;-79
2021/07/26 02:30:36;;;;;;;0.60;0.60;;;18.30;82.80;;;;;;5054140;28;20088;-79
2021/07/26 02:33:01;;;;;;;0.60;0.60;;;18.40;82.90;;;;;;5036642;28;20106;-78
2021/07/26 02:35:29;;;;;;;0.75;0.75;;;18.40;82.90;;;;;;5054833;28;20075;-79
2021/07/26 02:37:57;;;;;;;0.80;0.80;;;18.30;82.90;;;;;;5054549;28;20017;-78
2021/07/26 02:40:22;;;;;;;0.82;0.68;;;18.30;82.90;;;;;;5036464;28;20430;-79
2021/07/26 02:42:48;;;;;;;0.70;0.70;;;18.30;83.00;;;;;;5035916;28;20120;-78
2021/07/26 02:45:13;;;;;;;1.10;0.80;;;18.30;83.00;;;;;;5054249;28;20025;-78
2021/07/26 02:47:39;;;;;;;0.60;0.60;;;18.30;83.10;;;;;;5054181;28;20029;-78
2021/07/26 02:50:05;;;;;;;0.82;0.70;;;18.30;83.20;;;;;;5054240;28;20068;-78
2021/07/26 02:52:31;;;;;;;0.85;0.85;;;18.30;83.20;;;;;;5036197;28;20045;-79
2021/07/26 02:54:56;;;;;;;0.80;0.80;;;18.30;83.20;;;;;;5036236;28;20036;-78
2021/07/26 02:57:22;;;;;;;0.85;0.70;;;18.20;83.20;;;;;;5054000;28;20351;-78
2021/07/26 02:59:47;;;;;;;0.68;0.57;;;18.20;83.20;;;;;;5053635;28;20029;-78
2021/07/26 03:02:13;;;;;;;0.60;0.55;;;18.20;83.10;;;;;;5054102;28;20021;-78
2021/07/26 03:04:38;;;;;;;0.80;0.75;;;18.30;83.20;;;;;;5054001;28;20090;-78
2021/07/26 03:07:04;;;;;;;0.50;0.50;;;18.30;83.20;;;;;;5053989;28;20020;-78
2021/07/26 03:09:29;;;;;;;1.55;0.80;;;18.30;83.20;;;;;;5053698;28;20025;-79
2021/07/26 03:11:55;;;;;;;0.60;0.60;;;18.30;83.20;;;;;;5053902;28;20032;-79
2021/07/26 03:14:20;;;;;;;0.45;0.45;;;18.20;83.20;;;;;;5035452;28;20029;-78
2021/07/26 03:16:46;;;;;;;0.75;0.60;;;18.30;83.20;;;;;;5053786;28;20017;-78
2021/07/26 03:19:11;;;;;;;0.63;0.63;;;18.30;83.10;;;;;;5035789;28;20489;-78
2021/07/26 03:21:37;;;;;;;1.10;1.00;;;18.30;83.10;;;;;;5053709;28;20541;-77
2021/07/26 03:24:03;;;;;;;0.70;0.70;;;18.20;83.10;;;;;;5053549;28;20036;-78
2021/07/26 03:26:28;;;;;;;0.70;0.70;;;18.20;83.10;;;;;;5053503;28;20063;-78
2021/07/26 03:28:54;;;;;;;0.52;0.52;;;18.30;83.20;;;;;;5053120;28;20052;-77
2021/07/26 03:31:19;;;;;;;0.52;0.52;;;18.30;83.20;;;;;;5053549;28;20029;-78
2021/07/26 03:33:45;;;;;;;0.68;0.68;;;18.20;83.10;;;;;;5053439;28;20043;-77
2021/07/26 03:36:12;;;;;;;0.80;0.80;;;18.20;83.10;;;;;;5053477;28;20363;-77
2021/07/26 03:38:38;;;;;;;0.30;0.30;;;18.20;83.20;;;;;;5053542;28;20096;-77
2021/07/26 03:41:03;;;;;;;0.68;0.68;;;18.20;83.20;;;;;;5035562;28;20417;-77
2021/07/26 03:43:30;;;;;;;0.50;0.50;;;18.20;83.20;;;;;;5053004;28;20036;-77
2021/07/26 03:45:55;;;;;;;0.55;0.50;;;18.20;83.20;;;;;;5035365;28;20028;-77
2021/07/26 03:48:21;;;;;;;0.30;0.30;;;18.30;83.30;;;;;;5053144;28;20017;-78
2021/07/26 03:50:47;;;;;;;1.48;0.70;;;18.20;83.20;;;;;;5053307;28;20067;-77
2021/07/26 03:53:12;;;;;;;0.65;0.50;;;18.20;83.30;;;;;;5053088;28;20091;-77
2021/07/26 03:55:38;;;;;;;0.57;0.52;;;18.10;83.30;;;;;;5052281;28;20478;-78
2021/07/26 03:58:03;;;;;;;0.52;0.45;;;18.10;83.40;;;;;;5052716;28;20028;-77
2021/07/26 04:00:30;;;;;;;0.40;0.40;;;18.10;83.50;;;;;;5053151;28;20032;-78
2021/07/26 04:03:10;;;;;;;0.88;0.73;;;18.10;83.50;;;;;;5052999;28;20049;-78
2021/07/26 04:05:38;;;;;;;0.88;0.82;;;18.10;83.50;;;;;;5035225;28;20029;-78
2021/07/26 04:08:13;;;;;;;0.70;0.70;;;18.10;83.60;;;;;;5053232;28;20025;-78
2021/07/26 04:10:41;;;;;;;0.50;0.50;;;18.10;83.60;;;;;;5052996;28;20112;-78
2021/07/26 04:13:07;;;;;;;0.60;0.60;;;18.10;83.60;;;;;;5052505;28;20021;-78
2021/07/26 04:15:32;;;;;;;0.52;0.52;;;18.10;83.60;;;;;;5053025;28;20770;-78
2021/07/26 04:17:58;;;;;;;0.70;0.70;;;18.10;83.60;;;;;;5052894;28;20029;-79
2021/07/26 04:20:23;;;;;;;0.55;0.55;;;18.10;83.60;;;;;;5052980;28;20104;-79
2021/07/26 04:22:49;;;;;;;0.65;0.65;;;18.10;83.70;;;;;;5052976;28;20025;-78
2021/07/26 04:25:15;;;;;;;0.50;0.50;;;18.10;83.70;;;;;;5052773;28;20033;-78
2021/07/26 04:27:40;;;;;;;0.73;0.73;;;18.10;83.70;;;;;;5034507;28;20036;-78
2021/07/26 04:30:07;;;;;;;0.55;0.55;;;18.10;83.60;;;;;;5034938;28;20024;-78
2021/07/26 04:32:43;;;;;;;0.70;0.70;;;18.10;83.60;;;;;;5052875;28;20150;-78
2021/07/26 04:35:09;;;;;;;0.52;0.50;;;18.10;83.60;;;;;;5052842;28;20029;-78
2021/07/26 04:37:35;;;;;;;0.45;0.45;;;18.10;83.70;;;;;;5052685;28;20032;-79
2021/07/26 04:40:00;;;;;;;0.50;0.50;;;18.10;83.70;;;;;;5052748;28;20024;-79
2021/07/26 04:42:26;;;;;;;0.43;0.43;;;18.10;83.70;;;;;;5052174;28;20017;-78
2021/07/26 04:44:51;;;;;;;0.80;0.80;;;18.10;83.70;;;;;;5052557;28;20474;-78
2021/07/26 04:47:17;;;;;;;0.80;0.80;;;18.10;83.70;;;;;;5052721;28;20035;-78
2021/07/26 04:49:43;;;;;;;0.85;0.60;;;18.20;83.70;;;;;;5052518;28;20025;-78
2021/07/26 04:52:08;;;;;;;0.50;0.38;;;18.20;83.70;;;;;;5052380;28;20049;-78
2021/07/26 04:54:34;;;;;;;0.75;0.57;;;18.20;83.70;;;;;;5052755;28;20017;-78
2021/07/26 04:56:59;;;;;;;0.30;0.30;;;18.20;83.70;;;;;;5052366;28;20051;-78
2021/07/26 04:59:25;;;;;;;0.55;0.40;;;18.20;83.70;;;;;;5052500;28;20021;-78
2021/07/26 05:01:50;;;;;;;0.60;0.60;;;18.30;83.60;;;;;;5034645;28;20487;-78
2021/07/26 05:04:16;;;;;;;0.75;0.68;;;18.30;83.50;;;;;;5052470;28;20039;-78
2021/07/26 05:06:42;;;;;;;0.68;0.52;;;18.40;83.90;;;;;;5054812;28;20017;-79
2021/07/26 05:09:07;;;;;;;0.73;0.60;;;18.40;83.60;;;;;;5038324;28;20478;-79
2021/07/26 05:11:33;;;;;;;0.82;0.60;;;18.40;83.60;;;;;;5055672;28;20032;-79
2021/07/26 05:13:58;;;;;;;0.32;0.32;;;18.40;83.60;;;;;;5056020;28;20087;-79
2021/07/26 05:16:24;;;;;;;0.47;0.47;;;18.40;83.60;;;;;;5056044;28;20025;-78
2021/07/26 05:18:53;;;;;;;0.63;0.63;;;18.40;83.70;;;;;;5056068;28;20025;-79
2021/07/26 05:21:19;;;;;;;;;;;18.40;83.60;;;;;;5056341;28;20033;-78
2021/07/26 05:23:44;;;;;;;0.32;0.32;;;18.40;83.40;;;;;;5055875;28;19909;-78
2021/07/26 05:26:10;;;;;;;0.65;0.65;;;18.40;83.60;;;;;;5055615;28;20025;-79
2021/07/26 05:28:35;;;;;;;0.40;0.40;;;18.40;83.60;;;;;;5055826;28;20108;-78
2021/07/26 05:31:01;;;;;;;0.55;0.47;;;18.50;83.60;;;;;;5055686;28;20493;-79
2021/07/26 05:33:27;;;;;;;0.43;0.43;;;18.50;83.60;;;;;;5037839;28;20532;-79
2021/07/26 05:35:53;;;;;;;0.43;0.43;;;18.60;83.70;;;;;;5055615;28;20017;-79
2021/07/26 05:38:19;;;;;;;0.75;0.52;;;18.60;83.60;;;;;;5055573;28;20040;-79
2021/07/26 05:40:44;;;;;;;0.60;0.52;;;18.60;83.50;;;;;;5055155;28;20017;-79
2021/07/26 05:43:10;;;;;;;0.50;0.50;;;18.70;83.50;;;;;;5055642;28;20079;-79
2021/07/26 05:45:37;;;;;;;0.52;0.52;;;18.70;83.50;;;;;;5055469;28;20124;-79
2021/07/26 05:48:03;;;;;;;0.52;0.52;;;18.70;83.30;;;;;;5055343;28;20031;-79
2021/07/26 05:50:29;;;;;;;0.60;0.60;;;18.80;83.40;;;;;;5055202;28;20029;-80
2021/07/26 05:52:54;;;;;;;0.45;0.45;;;18.80;83.40;;;;;;5055210;28;20494;-80
2021/07/26 05:55:20;;;;;;;0.60;0.60;;;18.80;83.40;;;;;;5054997;28;20025;-80
2021/07/26 05:57:47;;;;;;;0.40;0.40;;;18.90;83.50;;;;;;5055208;28;20017;-79
2021/07/26 06:00:17;;;;;;;0.40;0.40;;;18.90;83.40;;;;;;5055459;28;20043;-79
2021/07/26 06:02:43;;;;;;;0.50;0.50;;;18.90;83.30;;;;;;5055247;28;20508;-79
2021/07/26 06:05:09;;;;;;;0.68;0.68;;;19.00;83.30;;;;;;5055099;28;20033;-79
2021/07/26 06:07:34;;;;;;;0.47;0.47;;;19.00;84.00;;;;;;5055063;28;20028;-79
2021/07/26 06:10:00;;;;;;;0.70;0.60;;;19.00;83.30;;;;;;5054401;28;20039;-79
2021/07/26 06:12:26;;;;;;;0.57;0.57;;;19.00;83.30;;;;;;5055103;28;20021;-80
2021/07/26 06:14:52;;;;;;;0.55;0.55;;;19.10;83.40;;;;;;5055030;28;20041;-80
2021/07/26 06:17:18;;;;;;;0.80;0.80;;;19.10;83.40;;;;;;5053921;28;20035;-80
2021/07/26 06:19:43;;;;;;;0.70;0.70;;;19.10;83.40;;;;;;5054756;28;20040;-80
2021/07/26 06:22:09;;;;;;;0.55;0.55;;;19.20;83.40;;;;;;5054673;28;20495;-80
2021/07/26 06:24:34;;;;;;;0.77;0.77;;;19.20;83.40;;;;;;5054209;28;20037;-80
2021/07/26 06:27:00;;;;;;;0.60;0.60;;;19.30;83.40;;;;;;5054612;28;20025;-80
2021/07/26 06:29:26;;;;;;;0.60;0.60;;;19.30;83.40;;;;;;5054641;28;20021;-81
2021/07/26 06:31:52;;;;;;;1.30;0.80;;;19.30;83.40;;;;;;5054706;28;20017;-80
2021/07/26 06:34:18;;;;;;;1.38;0.93;;;19.40;83.30;;;;;;5054388;28;20103;-80
2021/07/26 06:36:44;;;;;;;1.20;1.00;;;19.50;83.20;;;;;;5054693;28;20025;-80
2021/07/26 06:39:10;;;;;;;0.68;0.68;;;19.50;83.20;;;;;;5054027;28;20108;-81
2021/07/26 06:41:36;;;;;;;1.10;0.80;;;19.60;83.20;;;;;;5054484;28;20347;-80
2021/07/26 06:44:03;;;;;;;2.17;1.20;;;19.60;83.20;;;;;;5054431;28;20450;-80
2021/07/26 06:46:28;;;;;;;1.02;0.70;;;19.60;83.20;;;;;;5036441;28;20035;-80
2021/07/26 06:48:54;;;;;;;1.30;1.02;;;19.60;83.30;;;;;;5054135;28;20021;-81
2021/07/26 06:51:22;;;;;;;1.02;0.75;;;19.60;83.40;;;;;;5053637;28;20073;-79
2021/07/26 06:53:47;;;;;;;1.33;1.00;;;19.60;83.40;;;;;;5054149;28;20032;-80
2021/07/26 06:56:12;;;;;;;1.50;0.80;;;19.60;83.50;;;;;;5054159;28;20113;-80
2021/07/26 06:58:39;;;;;;;1.30;1.17;;;19.70;83.40;;;;;;5054078;28;20021;-80
2021/07/26 07:01:06;;;;;;;1.10;0.88;;;19.70;83.30;;;;;;5053979;28;20013;-81
2021/07/26 07:03:32;;;;;;;1.08;0.90;;;19.90;83.10;;;;;;5054025;28;20025;-80
2021/07/26 07:06:06;;;;;;;0.75;0.70;;;20.10;82.90;;;;;;5035608;28;20114;-80
2021/07/26 07:08:31;;;;;;;0.60;0.60;;;20.20;82.70;;;;;;5053953;28;20055;-80
2021/07/26 07:11:11;;;;;;;1.08;1.08;;;20.20;82.60;;;;;;5053898;28;20062;-80
2021/07/26 07:13:41;;;;;;;1.10;1.00;;;20.30;82.70;;;;;;5053876;28;20078;-81
2021/07/26 07:16:18;;;;;;;1.70;1.30;;;20.30;82.80;;;;;;5035920;28;20024;-81
2021/07/26 07:18:47;;;;;;;1.05;0.90;;;20.30;82.90;;;;;;5053903;28;20021;-80
2021/07/26 07:21:17;;;;;;;0.80;0.80;;;20.30;82.90;;;;;;5053310;28;20446;-80
2021/07/26 07:23:42;;;;;;;0.82;0.80;;;20.20;82.90;;;;;;5035712;28;20025;-80
2021/07/26 07:26:08;;;;;;;1.70;1.05;;;20.20;83.00;;;;;;5053652;28;20033;-80
2021/07/26 07:28:33;;;;;;;1.25;1.05;;;20.20;83.00;;;;;;5053211;28;20104;-81
2021/07/26 07:30:59;;;;;;;1.20;1.10;;;20.20;83.10;;;;;;5035568;28;20059;-81
2021/07/26 07:33:25;;;;;;;0.82;0.80;;;20.30;83.10;;;;;;5053592;28;20025;-80
2021/07/26 07:35:51;;;;;;;1.42;0.95;;;20.40;82.80;;;;;;5053071;28;20550;-80
2021/07/26 07:38:16;;;;;;;1.10;1.10;;;20.60;82.70;;;;;;5053305;28;20057;-80
2021/07/26 07:40:42;;;;;;;1.05;1.00;;;20.70;82.40;;;;;;5053479;28;20044;-80
2021/07/26 07:43:07;;;;;;;0.98;0.98;;;20.80;82.40;;;;;;5053275;28;20056;-81
2021/07/26 07:45:33;;;;;;;1.10;1.00;;;20.80;82.40;;;;;;5053220;28;20397;-80
2021/07/26 07:47:59;;;;;;;1.23;1.10;;;20.90;82.30;;;;;;5053496;28;20033;-81
2021/07/26 07:50:25;;;;;;;1.13;1.02;;;20.90;82.30;;;;;;5052731;28;20486;-80
2021/07/26 07:52:50;;;;;;;0.93;0.93;;;20.90;82.30;;;;;;5053062;28;20048;-80
2021/07/26 07:55:16;;;;;;;1.58;0.90;;;21.00;82.30;;;;;;5053263;28;20029;-81
2021/07/26 07:57:42;;;;;;;2.22;1.75;;;21.00;82.80;;;;;;5053108;28;20032;-81
2021/07/26 08:00:12;;;;;;;1.30;1.20;;;21.10;82.10;;;;;;5053043;28;20527;-81
2021/07/26 08:02:38;;;;;;;1.17;0.95;;;21.20;82.00;;;;;;5035370;28;20028;-81
2021/07/26 08:05:04;;;;;;;1.23;1.13;;;21.30;81.90;;;;;;5052652;28;20033;-80
2021/07/26 08:07:30;;;;;;;1.10;1.05;;;21.20;81.90;;;;;;5052963;28;20056;-81
2021/07/26 08:09:55;;;;;;;1.10;1.00;;;21.20;82.00;;;;;;5053043;28;20020;-82
2021/07/26 08:12:21;;;;;;;1.10;1.00;;;21.10;82.20;;;;;;5035134;28;20032;-81
2021/07/26 08:14:46;;;;;;;1.88;1.25;;;21.00;82.40;;;;;;5035238;28;20021;-82
2021/07/26 08:17:12;;;;;;;1.30;1.20;;;20.90;82.50;;;;;;5052869;28;20405;-81
2021/07/26 08:19:37;;;;;;;1.27;1.10;;;20.90;82.50;;;;;;5034652;28;20029;-81
2021/07/26 08:22:03;;;;;;;2.28;1.20;;;21.00;82.40;;;;;;5052998;28;20371;-82
2021/07/26 08:24:28;;;;;;;0.93;0.88;;;21.00;82.30;;;;;;5053004;28;20548;-83
2021/07/26 08:26:54;;;;;;;0.70;0.70;;;21.10;82.20;;;;;;5034974;28;20104;-82
2021/07/26 08:29:19;;;;;;;0.80;0.80;;;21.20;82.10;;;;;;5053305;28;20032;-83
2021/07/26 08:31:45;;;;;;;0.65;0.65;;;21.30;81.90;;;;;;5053157;28;20025;-82
2021/07/26 08:34:10;;;;;;;0.93;0.85;;;21.40;81.90;;;;;;5052516;28;20499;-82
2021/07/26 08:36:36;;;;;;;1.00;0.88;;;21.30;82.50;;;;;;5052798;28;20112;-83
2021/07/26 08:39:02;;;;;;;1.42;1.15;;;21.30;82.00;;;;;;5052951;28;20532;-82
2021/07/26 08:41:27;;;;;;;1.02;0.77;;;21.30;82.00;;;;;;5037052;28;20025;-83
2021/07/26 08:43:53;;;;;;;0.73;0.73;;;21.30;82.00;;;;;;5056870;28;20466;-83
2021/07/26 08:46:20;;;;;;;0.80;0.80;;;21.40;81.80;;;;;;5056781;28;20033;-82
2021/07/26 08:48:47;;;;;;;1.00;0.90;;;21.50;81.60;;;;;;5056267;28;20070;-82
2021/07/26 08:51:16;;;;;;;0.50;0.50;;;21.50;81.70;;;;;;5056622;28;20509;-83
2021/07/26 08:53:42;;;;;;;0.73;0.73;;;21.50;81.60;;;;;;5056898;28;20493;-82
2021/07/26 08:56:08;;;;;;;0.73;0.68;;;21.60;81.60;;;;;;5056838;28;20481;-83
2021/07/26 08:58:35;;;;;;;0.90;0.90;;;21.70;81.60;;;;;;5056722;28;20028;-83
2021/07/26 09:01:01;;;;;;;0.95;0.80;;;21.80;81.40;;;;;;5056599;28;20033;-83
2021/07/26 09:03:27;;;;;;;1.10;1.00;;;21.90;81.30;;;;;;5056198;28;20021;-82
2021/07/26 09:05:52;;;;;;;0.70;0.70;;;21.90;81.00;;;;;;5056508;28;20539;-83
2021/07/26 09:08:18;;;;;;;0.73;0.73;;;21.90;81.10;;;;;;5038659;28;20408;-83
2021/07/26 09:10:44;;;;;;;0.68;0.68;;;21.90;81.20;;;;;;5056629;28;20025;-83
2021/07/26 09:13:12;;;;;;;1.00;0.85;;;21.90;81.30;;;;;;5056450;28;20111;-83
2021/07/26 09:15:40;;;;;;;0.80;0.80;;;21.90;81.40;;;;;;5056382;28;20454;-83
2021/07/26 09:18:14;;;;;;;0.93;0.90;;;21.90;81.30;;;;;;5056133;28;20374;-83
2021/07/26 09:20:40;;;;;;;0.93;0.93;;;22.00;81.20;;;;;;5038622;28;20547;-84
2021/07/26 09:23:14;;;;;;;0.93;0.75;;;22.10;81.20;;;;;;5056524;28;20013;-83
2021/07/26 09:25:44;;;;;;;0.90;0.90;;;22.30;81.00;;;;;;5038572;28;20037;-83
2021/07/26 09:28:13;;;;;;;1.17;0.90;;;22.30;80.70;;;;;;5056458;28;20032;-84
2021/07/26 09:30:51;;;;;;;0.50;0.50;;;22.40;80.60;;;;;;5056058;28;20094;-83
2021/07/26 09:33:23;;;;;;;0.47;0.47;;;22.50;80.60;;;;;;5056313;28;20347;-84
2021/07/26 09:36:05;;;;;;;1.00;0.90;;;22.60;80.50;;;;;;5056272;28;20029;-84
2021/07/26 09:38:31;;;;;;;0.90;0.60;;;22.80;80.40;;;;;;5056220;28;20109;-83
2021/07/26 09:40:57;;;;;;;0.77;0.65;;;22.90;80.20;;;;;;5056077;28;20055;-83
2021/07/26 09:43:24;;;;;;;0.73;0.60;;;23.10;80.00;;;;;;5038340;28;20033;-84
2021/07/26 09:45:55;;;;;;;0.50;0.50;;;23.20;80.00;;;;;;5055550;28;20044;-84
2021/07/26 09:48:29;;;;;;;0.40;0.40;;;23.30;79.90;;;;;;5056195;28;20021;-84
2021/07/26 09:50:56;;;;;;;0.50;0.50;;;23.30;79.80;;;;;;5055768;28;20021;-83
2021/07/26 09:53:23;;;;;;;0.80;0.75;;;23.30;79.90;;;;;;5055714;28;20028;-83
2021/07/26 09:55:54;;;;;;;0.50;0.50;;;23.30;79.90;;;;;;5055774;28;20021;-84
2021/07/26 09:58:34;;;;;;;1.02;0.93;;;23.20;80.00;;;;;;5055449;28;20509;-83
2021/07/26 10:01:00;;;;;;;0.65;0.65;;;23.20;79.90;;;;;;5055431;28;20108;-84
2021/07/26 10:03:27;;;;;;;0.57;0.57;;;23.10;80.20;;;;;;5055599;28;20127;-83
2021/07/26 10:05:54;;;;;;;1.23;1.13;;;23.00;80.30;;;;;;5055332;28;20029;-84
2021/07/26 10:08:21;;;;;;;1.08;1.08;;;22.80;80.40;;;;;;5055268;28;20029;-82
2021/07/26 10:10:47;;;;;;;1.23;1.08;;;22.70;80.60;;;;;;5037254;28;20025;-82
2021/07/26 10:13:13;;;;;;;1.27;0.70;;;22.50;80.80;;;;;;5055435;28;20025;-83
2021/07/26 10:15:39;;;;;;;0.80;0.80;;;22.40;81.10;;;;;;5054776;28;20137;-82
2021/07/26 10:18:06;;;;;;;0.77;0.77;;;22.50;81.00;;;;;;5054906;28;20025;-81
2021/07/26 10:20:39;;;;;;;1.00;0.73;;;22.70;80.60;;;;;;5037088;28;20577;-82
2021/07/26 10:23:08;;;;;;;1.15;1.05;;;23.10;80.00;;;;;;5054984;28;20530;-82
2021/07/26 10:25:46;;;;;;;0.52;0.52;;;23.20;79.30;;;;;;5054831;28;20028;-82
2021/07/26 10:28:31;;;;;;;0.90;0.90;;;23.30;79.00;;;;;;5054673;28;20025;-82
2021/07/26 10:30:57;;;;;;;0.50;0.50;;;23.30;79.20;;;;;;5054403;28;20052;-82
2021/07/26 10:33:23;;;;;;;0.43;0.43;;;23.20;79.40;;;;;;5054753;28;20036;-82
2021/07/26 10:35:53;;;;;;;0.63;0.63;;;23.20;79.50;;;;;;5036767;28;20370;-82
2021/07/26 10:38:44;;;;;;;0.60;0.60;;;23.20;79.50;;;;;;5054726;28;20462;-82
2021/07/26 10:41:10;;;;;;;0.70;0.70;;;23.20;79.50;;;;;;5036763;28;20554;-83
2021/07/26 10:43:59;;;;;;;0.40;0.40;;;23.20;79.40;;;;;;5054142;28;20064;-82
2021/07/26 10:46:25;;;;;;;0.63;0.63;;;23.20;79.40;;;;;;5054643;28;20037;-81
2021/07/26 10:48:52;;;;;;;1.02;0.80;;;23.10;79.50;;;;;;5054519;28;20517;-83
2021/07/26 10:51:35;;;;;;;0.70;0.70;;;22.90;79.80;;;;;;5054322;28;20055;-83
2021/07/26 10:54:01;;;;;;;0.70;0.70;;;22.80;80.00;;;;;;5054368;28;20025;-83
2021/07/26 10:56:26;;;;;;;0.65;0.63;;;22.80;80.20;;;;;;5054347;28;20067;-80
2021/07/26 10:59:00;;;;;;;0.68;0.68;;;23.00;80.00;;;;;;5053885;28;20028;-82
2021/07/26 11:01:26;;;;;;;0.82;0.73;;;23.30;79.40;;;;;;5054189;28;20048;-81
2021/07/26 11:03:56;;;;;;;0.60;0.60;;;23.80;78.60;;;;;;5053391;28;20374;-80
2021/07/26 11:06:37;;;;;;;0.77;0.77;;;24.20;77.90;;;;;;5054068;28;20110;-81
2021/07/26 11:09:20;;;;;;;0.88;0.88;;;24.30;77.50;;;;;;5054001;28;20029;-82
2021/07/26 11:11:47;;;;;;;0.73;0.70;;;24.20;77.80;;;;;;5036117;28;20335;-81
2021/07/26 11:14:14;;;;;;;1.08;0.70;;;24.10;78.10;;;;;;5053331;28;20029;-81
2021/07/26 11:16:49;;;;;;;0.55;0.55;;;24.00;78.10;;;;;;5053849;28;20024;-81
2021/07/26 11:22:46;;;;;;;0.68;0.65;;;24.10;78.10;;;;;;5040567;28;20025;-82
2021/07/26 11:25:13;;;;;;;0.38;0.38;;;24.40;78.00;;;;;;5053502;28;20033;-81
2021/07/26 11:27:38;;;;;;;0.75;0.70;;;24.50;77.50;;;;;;5053277;28;20068;-81
2021/07/26 11:30:08;;;;;;;0.50;0.50;;;24.60;77.30;;;;;;5035744;28;20567;-81
2021/07/26 11:32:33;;;;;;;0.45;0.45;;;24.60;77.40;;;;;;5035815;28;20021;-82
2021/07/26 11:35:00;;;;;;;0.30;0.30;;;24.50;77.50;;;;;;5053491;28;20151;-81
2021/07/26 11:37:36;;;;;;;0.45;0.45;;;24.50;77.50;;;;;;5053464;28;20029;-81
2021/07/26 11:40:04;;;;;;;0.50;0.50;;;24.60;77.30;;;;;;5053621;28;20017;-81
2021/07/26 11:42:35;;;;;;;0.40;0.40;;;24.90;77.10;;;;;;5052928;28;20084;-81
2021/07/26 11:45:01;;;;;;;0.40;0.40;;;25.00;76.50;;;;;;5053406;28;20489;-80
2021/07/26 11:47:35;;;;;;;0.60;0.60;;;24.90;76.50;;;;;;5053282;28;20051;-81
2021/07/26 11:50:09;;;;;;;0.22;0.22;;;24.90;76.50;;;;;;5053310;28;20474;-81
2021/07/26 11:52:35;;;;;;;0.52;0.47;;;24.90;76.60;;;;;;5053226;28;20132;-80
2021/07/26 11:55:09;;;;;;;0.63;0.55;;;24.70;76.60;;;;;;5053134;28;20024;-80
2021/07/26 11:57:35;;;;;;;0.32;0.32;;;24.60;76.80;;;;;;5053007;28;20036;-82
2021/07/26 12:00:05;;;;;;;0.28;0.28;;;24.60;76.90;;;;;;5053153;28;20021;-81
2021/07/26 12:02:33;;;;;;;0.70;0.70;;;24.70;76.90;;;;;;5035286;28;20053;-81
2021/07/26 12:05:04;;;;;;;0.63;0.60;;;24.90;76.50;;;;;;5052889;28;20108;-79
2021/07/26 12:07:45;;;;;;;0.65;0.65;;;25.00;76.10;;;;;;5053044;28;20023;-79
2021/07/26 12:10:16;;;;;;;0.45;0.45;;;25.70;75.50;;;;;;5053055;28;20389;-80
2021/07/26 12:12:45;;;;;;;0.60;0.60;;;26.20;74.40;;;;;;5034687;28;20021;-81
2021/07/26 12:15:29;;;;;;;0.65;0.60;;;26.20;73.90;;;;;;5053056;28;20412;-80
2021/07/26 12:18:05;;;;;;;0.60;0.60;;;26.30;74.20;;;;;;5057209;28;20027;-81
2021/07/26 12:20:31;;;;;;;0.60;0.60;;;26.50;74.10;;;;;;5057077;28;20474;-79
2021/07/26 12:22:56;;;;;;;0.40;0.40;;;26.50;73.90;;;;;;5056943;28;20021;-80
2021/07/26 12:25:23;;;;;;;0.75;0.68;;;26.70;73.60;;;;;;5056540;28;20032;-81
2021/07/26 12:28:01;;;;;;;0.60;0.60;;;26.40;73.40;;;;;;5057042;28;20025;-81
2021/07/26 12:30:38;;;;;;;0.50;0.50;;;26.00;74.10;;;;;;5039016;28;20377;-81
2021/07/26 12:33:05;;;;;;;0.52;0.52;;;25.60;75.00;;;;;;5056853;28;20525;-80
2021/07/26 12:35:32;;;;;;;0.70;0.70;;;25.30;75.30;;;;;;5056755;28;20077;-81
2021/07/26 12:38:00;;;;;;;0.65;0.65;;;25.40;75.40;;;;;;5039083;28;20021;-81
2021/07/26 12:40:27;;;;;;;0.63;0.50;;;25.60;75.00;;;;;;5038493;28;20122;-81
2021/07/26 12:43:16;;;;;;;0.52;0.52;;;25.50;74.90;;;;;;5056684;28;20029;-81
2021/07/26 12:45:53;;;;;;;0.60;0.60;;;25.40;75.00;;;;;;5056704;28;20071;-80
2021/07/26 12:48:22;;;;;;;0.47;0.47;;;25.30;75.20;;;;;;5056683;28;20025;-81
2021/07/26 12:50:49;;;;;;;0.40;0.40;;;25.30;75.30;;;;;;5056647;28;20033;-81
2021/07/26 12:53:15;;;;;;;0.30;0.30;;;25.30;75.20;;;;;;5056346;28;20441;-81